Time;durP1;ratioP1;P1;durP2;ratioP2;P2;SDS_P1;SDS_P2;PMS_P1;PMS_P2;Temp;Humidity;BMP_temperature;BMP_pressure;BME280_temperature;BME280_humidity;BME280_pressure;Samples;Min_cycle;Max_cycle;Signal;HPM_P1;HPM_P2
2024/03/27 00:01:10;;;;;;;4.90;3.40;;;10.90;99.90;;;;;;5104215;28;20435;-81
2024/03/27 00:03:36;;;;;;;5.32;3.33;;;10.80;99.90;;;;;;5088531;28;20449;-80
2024/03/27 00:06:04;;;;;;;7.60;3.55;;;11.00;99.90;;;;;;5082158;28;20383;-79
2024/03/27 00:08:31;;;;;;;5.90;3.50;;;10.90;99.90;;;;;;5101779;28;20611;-81
2024/03/27 00:10:58;;;;;;;5.00;3.40;;;11.00;99.90;;;;;;5104004;28;20378;-81
2024/03/27 00:13:23;;;;;;;3.60;2.60;;;10.80;99.90;;;;;;5103743;28;20404;-82
2024/03/27 00:15:53;;;;;;;3.07;2.60;;;11.10;99.90;;;;;;5102464;28;20410;-82
2024/03/27 00:18:19;;;;;;;4.47;2.58;;;11.30;99.90;;;;;;5101946;28;20378;-81
2024/03/27 00:20:45;;;;;;;5.03;3.00;;;10.20;99.90;;;;;;5102695;28;20382;-82
2024/03/27 00:23:13;;;;;;;4.40;3.10;;;11.00;99.90;;;;;;5095718;28;20436;-82
2024/03/27 00:25:38;;;;;;;4.55;3.00;;;11.20;99.90;;;;;;5100140;28;20481;-82
2024/03/27 00:28:04;;;;;;;5.45;3.92;;;10.90;99.90;;;;;;5103383;28;20420;-81
2024/03/27 00:30:29;;;;;;;6.57;4.00;;;11.20;99.90;;;;;;5102617;28;20428;-83
2024/03/27 00:32:57;;;;;;;5.30;3.60;;;11.00;99.90;;;;;;5100960;28;20465;-82
2024/03/27 00:35:23;;;;;;;4.20;3.10;;;11.20;99.90;;;;;;5102603;28;20392;-82
2024/03/27 00:37:48;;;;;;;5.07;3.40;;;11.20;99.90;;;;;;5101617;28;20380;-81
2024/03/27 00:40:14;;;;;;;5.65;3.60;;;11.20;99.90;;;;;;5090086;28;20864;-82
2024/03/27 00:42:39;;;;;;;5.35;3.30;;;11.40;99.90;;;;;;5080659;28;20486;-81
2024/03/27 00:45:05;;;;;;;4.97;3.13;;;11.30;99.90;;;;;;5080655;28;20472;-81
2024/03/27 00:47:31;;;;;;;5.60;3.63;;;12.00;99.90;;;;;;5083085;28;20376;-80
2024/03/27 00:49:56;;;;;;;4.60;3.42;;;11.50;99.90;;;;;;5084606;28;20442;-79
2024/03/27 00:52:22;;;;;;;5.88;3.70;;;11.70;99.90;;;;;;5085932;28;20372;-80
2024/03/27 00:54:48;;;;;;;4.90;3.60;;;11.40;99.90;;;;;;5086621;28;20387;-81
2024/03/27 00:57:13;;;;;;;3.93;3.20;;;11.50;99.90;;;;;;5102439;28;20804;-81
2024/03/27 00:59:39;;;;;;;4.50;3.30;;;11.40;99.90;;;;;;5103314;28;20390;-81
2024/03/27 01:02:05;;;;;;;4.25;3.20;;;11.40;99.90;;;;;;5102116;28;20404;-80
2024/03/27 01:04:32;;;;;;;3.92;3.40;;;11.40;99.90;;;;;;5101441;28;20394;-82
2024/03/27 01:06:57;;;;;;;7.47;3.05;;;11.50;99.90;;;;;;5101012;28;20435;-82
2024/03/27 01:09:23;;;;;;;5.00;3.08;;;11.30;99.90;;;;;;5102870;28;20382;-82
2024/03/27 01:11:48;;;;;;;5.57;3.50;;;11.10;99.90;;;;;;5110465;28;20370;-79
2024/03/27 01:14:14;;;;;;;5.40;3.50;;;10.90;99.90;;;;;;5095581;28;20401;-79
2024/03/27 01:16:39;;;;;;;4.40;3.30;;;10.90;99.90;;;;;;5106550;28;20386;-81
2024/03/27 01:19:06;;;;;;;4.93;3.30;;;10.70;99.90;;;;;;5103706;28;20394;-83
2024/03/27 01:21:31;;;;;;;5.50;3.72;;;10.60;99.90;;;;;;5102352;28;20439;-81
2024/03/27 01:23:57;;;;;;;6.00;4.20;;;10.50;99.90;;;;;;5096395;28;20399;-80
2024/03/27 01:26:22;;;;;;;4.67;3.23;;;10.30;99.90;;;;;;5083251;28;20462;-81
2024/03/27 01:28:48;;;;;;;3.63;3.00;;;10.20;99.90;;;;;;5089698;28;20902;-81
2024/03/27 01:31:13;;;;;;;4.50;3.20;;;10.00;99.90;;;;;;5108429;28;20410;-81
2024/03/27 01:33:38;;;;;;;4.97;3.70;;;10.20;99.90;;;;;;5105799;28;20382;-81
2024/03/27 01:36:04;;;;;;;4.30;2.95;;;9.20;99.90;;;;;;5106469;28;20762;-81
2024/03/27 01:38:30;;;;;;;4.75;3.22;;;10.20;99.90;;;;;;5105695;28;20932;-81
2024/03/27 01:40:56;;;;;;;3.92;2.80;;;10.00;99.90;;;;;;5107585;28;20378;-80
2024/03/27 01:43:21;;;;;;;4.60;2.83;;;9.90;99.90;;;;;;5106983;28;20485;-81
2024/03/27 01:45:47;;;;;;;2.90;2.70;;;9.80;99.90;;;;;;5104932;28;20386;-79
2024/03/27 01:48:13;;;;;;;5.00;2.90;;;9.70;99.90;;;;;;5106812;28;20480;-79
2024/03/27 01:50:39;;;;;;;3.22;2.92;;;9.70;99.90;;;;;;5097273;28;20383;-79
2024/03/27 01:53:05;;;;;;;4.87;3.00;;;9.60;99.90;;;;;;5098333;28;20439;-80
2024/03/27 01:55:31;;;;;;;3.92;3.13;;;9.60;99.90;;;;;;5092510;28;20396;-81
2024/03/27 01:57:57;;;;;;;6.70;3.00;;;9.20;99.90;;;;;;5089105;28;20495;-81
2024/03/27 02:00:25;;;;;;;4.28;3.25;;;9.60;99.90;;;;;;5101123;28;20404;-81
2024/03/27 02:02:51;;;;;;;4.28;3.22;;;9.40;99.90;;;;;;5111730;28;20449;-81
2024/03/27 02:05:17;;;;;;;3.10;2.70;;;9.50;99.90;;;;;;5109629;28;20409;-81
2024/03/27 02:07:44;;;;;;;3.70;3.10;;;9.30;99.90;;;;;;5109468;28;20388;-81
2024/03/27 02:10:09;;;;;;;4.57;2.83;;;9.30;99.90;;;;;;5108897;28;20385;-81
2024/03/27 02:12:35;;;;;;;4.55;3.30;;;9.10;99.90;;;;;;5110131;28;20385;-81
2024/03/27 02:15:05;;;;;;;4.20;3.20;;;9.00;99.90;;;;;;5108440;28;20397;-82
2024/03/27 02:17:31;;;;;;;3.45;3.15;;;8.90;99.90;;;;;;5087254;28;20396;-81
2024/03/27 02:19:57;;;;;;;4.70;2.90;;;9.00;99.90;;;;;;5086860;28;20494;-82
2024/03/27 02:22:24;;;;;;;4.17;2.90;;;8.70;99.90;;;;;;5086540;28;20475;-81
2024/03/27 02:25:03;;;;;;;3.20;2.88;;;8.80;99.90;;;;;;5101368;28;20398;-82
2024/03/27 02:27:29;;;;;;;4.15;2.95;;;8.70;99.90;;;;;;5098065;28;20759;-82
2024/03/27 02:29:54;;;;;;;5.27;3.20;;;8.50;99.90;;;;;;5087798;28;20394;-82
2024/03/27 02:32:20;;;;;;;4.37;3.50;;;9.10;99.90;;;;;;5083631;28;20398;-81
2024/03/27 02:34:45;;;;;;;7.28;3.80;;;8.70;99.90;;;;;;5084504;28;20409;-81
2024/03/27 02:37:11;;;;;;;4.90;3.70;;;8.70;99.90;;;;;;5085261;28;20858;-81
2024/03/27 02:39:36;;;;;;;3.70;3.40;;;8.70;99.90;;;;;;5085530;28;20392;-80
2024/03/27 02:42:02;;;;;;;5.80;4.00;;;8.60;99.90;;;;;;5101659;28;20393;-81
2024/03/27 02:44:27;;;;;;;3.90;3.17;;;8.50;99.90;;;;;;5104458;28;20422;-81
2024/03/27 02:46:53;;;;;;;4.40;3.70;;;8.40;99.90;;;;;;5104845;28;20385;-81
2024/03/27 02:49:18;;;;;;;3.87;3.40;;;7.90;99.90;;;;;;5104088;28;20376;-81
2024/03/27 02:51:44;;;;;;;4.38;3.10;;;8.20;99.90;;;;;;5104962;28;20386;-81
2024/03/27 02:54:09;;;;;;;5.90;3.60;;;8.30;99.90;;;;;;5103131;28;20382;-81
2024/03/27 02:56:35;;;;;;;4.60;3.20;;;8.30;99.90;;;;;;5102718;28;20393;-81
2024/03/27 02:59:00;;;;;;;5.87;3.70;;;8.10;99.90;;;;;;5109379;28;20386;-79
2024/03/27 03:01:26;;;;;;;3.45;3.15;;;8.20;99.90;;;;;;5111882;28;20394;-81
2024/03/27 03:03:51;;;;;;;4.00;3.40;;;8.30;99.90;;;;;;5099606;28;20927;-80
2024/03/27 03:06:17;;;;;;;5.20;3.20;;;8.20;99.90;;;;;;5099462;28;20397;-81
2024/03/27 03:08:42;;;;;;;4.35;3.60;;;8.20;99.90;;;;;;5100049;28;20385;-80
2024/03/27 03:11:08;;;;;;;8.55;3.70;;;8.10;99.90;;;;;;5100329;28;20397;-81
2024/03/27 03:13:33;;;;;;;5.10;3.80;;;7.30;99.90;;;;;;5101512;28;20443;-81
2024/03/27 03:15:59;;;;;;;4.80;3.10;;;8.10;99.90;;;;;;5101447;28;20393;-79
2024/03/27 03:18:26;;;;;;;6.15;3.70;;;8.00;99.90;;;;;;5101402;28;20370;-81
2024/03/27 03:21:04;;;;;;;3.90;3.55;;;8.00;99.90;;;;;;5089227;28;20388;-81
2024/03/27 03:23:30;;;;;;;3.80;3.40;;;8.00;99.90;;;;;;5081878;28;20433;-81
2024/03/27 03:25:56;;;;;;;5.70;3.80;;;7.90;99.90;;;;;;5100517;28;20979;-82
2024/03/27 03:28:22;;;;;;;4.43;3.20;;;7.40;99.90;;;;;;5088623;28;20420;-83
2024/03/27 03:30:47;;;;;;;6.55;3.88;;;7.80;99.90;;;;;;5075059;28;20771;-83
2024/03/27 03:33:13;;;;;;;3.95;3.13;;;8.00;99.90;;;;;;5076466;28;20395;-82
2024/03/27 03:35:38;;;;;;;5.20;3.93;;;8.00;99.90;;;;;;5075307;28;20478;-82
2024/03/27 03:38:04;;;;;;;3.87;2.80;;;7.90;99.90;;;;;;5075982;28;20384;-82
2024/03/27 03:40:47;;;;;;;3.50;3.20;;;8.00;99.90;;;;;;5081494;28;20378;-82
2024/03/27 03:43:12;;;;;;;5.32;3.78;;;7.80;99.90;;;;;;5095901;28;20849;-83
2024/03/27 03:45:38;;;;;;;4.22;3.40;;;7.90;99.90;;;;;;5099147;28;20418;-81
2024/03/27 03:48:04;;;;;;;3.70;3.10;;;7.70;99.90;;;;;;5102217;28;20831;-82
2024/03/27 03:50:29;;;;;;;4.30;3.10;;;8.00;99.90;;;;;;5101892;28;20378;-81
2024/03/27 03:52:55;;;;;;;4.13;2.93;;;7.70;99.90;;;;;;5101214;28;20389;-80
2024/03/27 03:55:20;;;;;;;6.83;4.03;;;7.90;99.90;;;;;;5097278;28;20389;-83
2024/03/27 03:57:46;;;;;;;4.67;3.40;;;7.10;99.90;;;;;;5095679;28;20393;-82
2024/03/27 04:00:18;;;;;;;5.60;3.30;;;7.90;99.90;;;;;;5095316;28;20443;-81
2024/03/27 04:02:44;;;;;;;6.40;3.70;;;7.40;99.90;;;;;;5080117;28;20411;-82
2024/03/27 04:05:11;;;;;;;5.03;3.33;;;7.90;99.90;;;;;;5074823;28;20398;-81
2024/03/27 04:07:37;;;;;;;4.55;3.30;;;7.80;99.90;;;;;;5075036;28;20383;-82
2024/03/27 04:10:02;;;;;;;3.95;3.55;;;7.80;99.90;;;;;;5074182;28;20771;-82
2024/03/27 04:12:31;;;;;;;4.85;3.60;;;8.00;99.90;;;;;;5073963;28;20380;-82
2024/03/27 04:14:57;;;;;;;4.25;3.20;;;8.00;99.90;;;;;;5075497;28;20390;-82
2024/03/27 04:17:22;;;;;;;4.97;3.40;;;8.10;99.90;;;;;;5072120;28;20376;-82
2024/03/27 04:19:51;;;;;;;4.00;3.40;;;8.10;99.90;;;;;;5074017;28;20391;-83
2024/03/27 04:22:16;;;;;;;5.55;3.45;;;8.10;99.90;;;;;;5073718;28;20444;-83
2024/03/27 04:24:45;;;;;;;3.67;3.28;;;8.20;99.90;;;;;;5085875;28;20390;-84
2024/03/27 04:27:12;;;;;;;5.18;3.30;;;8.20;99.90;;;;;;5092424;28;20874;-83
2024/03/27 04:29:38;;;;;;;4.43;3.30;;;8.10;99.90;;;;;;5093914;28;20390;-83
2024/03/27 04:32:04;;;;;;;3.50;3.20;;;7.70;99.90;;;;;;5093143;28;20378;-84
2024/03/27 04:34:30;;;;;;;4.20;3.50;;;8.20;99.90;;;;;;5094728;28;20417;-83
2024/03/27 04:36:55;;;;;;;3.77;3.37;;;8.10;99.90;;;;;;5094357;28;20916;-83
2024/03/27 04:39:22;;;;;;;4.18;3.20;;;8.20;99.90;;;;;;5094753;28;20738;-83
2024/03/27 04:41:48;;;;;;;3.92;3.33;;;8.40;99.90;;;;;;5094942;28;20784;-83
2024/03/27 04:44:14;;;;;;;5.80;3.50;;;8.10;99.90;;;;;;5092693;28;20535;-83
2024/03/27 04:46:40;;;;;;;4.27;3.37;;;8.10;99.90;;;;;;5094331;28;20467;-84
2024/03/27 04:49:05;;;;;;;5.10;3.20;;;7.90;99.90;;;;;;5092914;28;20390;-83
2024/03/27 04:51:31;;;;;;;5.13;3.73;;;8.10;99.90;;;;;;5093710;28;20412;-83
2024/03/27 04:53:56;;;;;;;3.43;3.07;;;8.20;99.90;;;;;;5094292;28;20897;-83
2024/03/27 04:56:22;;;;;;;4.50;3.10;;;8.00;99.90;;;;;;5093731;28;20382;-83
2024/03/27 04:58:47;;;;;;;5.32;3.20;;;8.20;99.90;;;;;;5093847;28;20397;-83
2024/03/27 05:01:13;;;;;;;4.83;3.30;;;8.10;99.90;;;;;;5094542;28;20386;-83
2024/03/27 05:03:39;;;;;;;4.33;3.60;;;7.80;99.90;;;;;;5096311;28;20393;-83
2024/03/27 05:06:04;;;;;;;5.00;3.67;;;8.20;99.90;;;;;;5098046;28;20381;-83
2024/03/27 05:08:30;;;;;;;4.43;3.25;;;8.20;99.90;;;;;;5097030;28;20438;-83
2024/03/27 05:10:55;;;;;;;3.70;3.40;;;8.20;99.90;;;;;;5097170;28;20480;-83
2024/03/27 05:13:21;;;;;;;4.17;3.30;;;8.20;99.90;;;;;;5091730;28;20474;-84
2024/03/27 05:15:46;;;;;;;3.70;3.40;;;8.10;99.90;;;;;;5075548;28;20392;-83
2024/03/27 05:18:12;;;;;;;4.47;3.40;;;8.00;99.90;;;;;;5075985;28;20394;-84
2024/03/27 05:20:38;;;;;;;4.40;3.20;;;8.10;99.90;;;;;;5077197;28;20395;-84
2024/03/27 05:23:03;;;;;;;5.35;3.75;;;7.90;99.90;;;;;;5078058;28;20913;-85
2024/03/27 05:25:29;;;;;;;4.97;3.77;;;8.10;99.90;;;;;;5084079;28;20400;-84
2024/03/27 05:27:57;;;;;;;5.07;3.60;;;8.10;99.90;;;;;;5078124;28;20391;-85
2024/03/27 05:30:23;;;;;;;4.35;3.90;;;8.10;99.90;;;;;;5076348;28;20398;-83
2024/03/27 05:32:48;;;;;;;4.93;3.30;;;8.20;99.90;;;;;;5082889;28;20873;-83
2024/03/27 05:35:14;;;;;;;5.07;3.43;;;8.20;99.90;;;;;;5096348;28;20382;-83
2024/03/27 05:37:39;;;;;;;5.00;3.20;;;8.20;99.90;;;;;;5096619;28;20401;-84
2024/03/27 05:40:06;;;;;;;4.25;3.35;;;8.30;99.90;;;;;;5079789;28;20430;-83
2024/03/27 05:42:31;;;;;;;5.13;3.70;;;8.30;99.90;;;;;;5075986;28;20395;-82
2024/03/27 05:44:57;;;;;;;3.23;2.80;;;8.30;99.90;;;;;;5077187;28;20387;-83
2024/03/27 05:47:22;;;;;;;4.50;3.05;;;8.50;99.90;;;;;;5075757;28;20387;-81
2024/03/27 05:49:48;;;;;;;3.77;3.27;;;8.40;99.90;;;;;;5086187;28;20394;-83
2024/03/27 05:52:13;;;;;;;3.23;2.93;;;8.50;99.90;;;;;;5097115;28;20405;-82
2024/03/27 05:54:39;;;;;;;4.80;3.00;;;8.50;99.90;;;;;;5096540;28;20397;-83
2024/03/27 05:57:04;;;;;;;5.32;3.40;;;8.70;99.90;;;;;;5096326;28;20386;-82
2024/03/27 05:59:29;;;;;;;3.60;2.80;;;8.50;99.90;;;;;;5101077;28;20477;-82
2024/03/27 06:01:55;;;;;;;3.60;3.30;;;8.70;99.90;;;;;;5108761;28;20393;-82
2024/03/27 06:04:22;;;;;;;3.60;3.00;;;8.70;99.90;;;;;;5101091;28;20765;-83
2024/03/27 06:06:47;;;;;;;4.67;2.97;;;8.60;99.90;;;;;;5096685;28;20392;-83
2024/03/27 06:09:13;;;;;;;3.87;3.40;;;8.50;99.90;;;;;;5085386;28;20798;-83
2024/03/27 06:11:38;;;;;;;3.40;2.80;;;8.60;99.90;;;;;;5081119;28;20376;-83
2024/03/27 06:14:04;;;;;;;4.07;2.90;;;8.70;99.90;;;;;;5079274;28;20387;-82
2024/03/27 06:16:31;;;;;;;4.70;2.65;;;8.60;99.90;;;;;;5080592;28;20396;-82
2024/03/27 06:18:57;;;;;;;4.10;3.00;;;8.70;99.90;;;;;;5078895;28;20402;-82
2024/03/27 06:21:22;;;;;;;3.75;3.17;;;8.70;99.90;;;;;;5079189;28;20395;-83
2024/03/27 06:23:48;;;;;;;6.07;3.73;;;8.80;99.90;;;;;;5080579;28;20459;-83
2024/03/27 06:26:14;;;;;;;5.10;3.20;;;8.60;99.90;;;;;;5096976;28;20397;-82
2024/03/27 06:28:40;;;;;;;3.80;3.40;;;8.80;99.90;;;;;;5097324;28;20386;-83
2024/03/27 06:31:08;;;;;;;6.90;3.42;;;8.90;99.90;;;;;;5097071;28;20378;-83
2024/03/27 06:33:34;;;;;;;3.80;3.50;;;9.00;99.90;;;;;;5095358;28;20382;-83
2024/03/27 06:36:00;;;;;;;5.50;3.37;;;9.40;99.90;;;;;;5096238;28;20400;-83
2024/03/27 06:38:27;;;;;;;3.20;2.90;;;9.40;99.90;;;;;;5096612;28;20870;-82
2024/03/27 06:40:52;;;;;;;5.45;3.55;;;10.30;99.90;;;;;;5095380;28;20907;-83
2024/03/27 06:43:22;;;;;;;5.03;3.97;;;9.10;99.90;;;;;;5099215;28;20500;-83
2024/03/27 06:45:47;;;;;;;4.80;3.80;;;9.70;99.90;;;;;;5095941;28;20389;-83
2024/03/27 06:48:15;;;;;;;4.78;4.18;;;9.60;99.90;;;;;;5098147;28;20414;-82
2024/03/27 06:50:41;;;;;;;7.60;4.40;;;10.00;99.90;;;;;;5096515;28;20382;-83
2024/03/27 06:53:06;;;;;;;4.80;4.03;;;9.60;99.90;;;;;;5096814;28;20846;-82
2024/03/27 06:55:32;;;;;;;4.27;3.87;;;9.80;99.90;;;;;;5097344;28;20758;-82
2024/03/27 06:57:57;;;;;;;4.67;4.23;;;10.00;99.90;;;;;;5100630;28;20386;-82
2024/03/27 07:00:23;;;;;;;5.00;4.50;;;9.90;99.90;;;;;;5098132;28;20393;-82
2024/03/27 07:02:49;;;;;;;5.53;4.90;;;9.90;99.90;;;;;;5098468;28;20417;-83
2024/03/27 07:05:17;;;;;;;6.03;5.05;;;9.90;99.90;;;;;;5098573;28;20386;-82
2024/03/27 07:07:43;;;;;;;6.93;4.83;;;9.60;99.90;;;;;;5097687;28;20385;-81
2024/03/27 07:10:09;;;;;;;5.80;4.40;;;10.00;99.90;;;;;;5098515;28;20753;-83
2024/03/27 07:12:35;;;;;;;5.20;4.70;;;10.50;99.90;;;;;;5094270;28;20393;-82
2024/03/27 07:15:01;;;;;;;7.00;5.50;;;9.80;99.90;;;;;;5099690;28;20371;-81
2024/03/27 07:17:27;;;;;;;6.32;5.30;;;10.20;99.90;;;;;;5100929;28;20386;-80
2024/03/27 07:19:52;;;;;;;6.10;5.50;;;10.10;99.90;;;;;;5115646;28;20390;-81
2024/03/27 07:22:18;;;;;;;5.53;5.03;;;9.70;99.90;;;;;;5116195;28;20398;-80
2024/03/27 07:24:43;;;;;;;6.40;5.80;;;9.90;99.90;;;;;;5112728;28;20405;-83
2024/03/27 07:27:09;;;;;;;7.70;6.30;;;9.90;99.90;;;;;;5104664;28;20495;-83
2024/03/27 07:29:35;;;;;;;7.70;5.80;;;9.60;99.90;;;;;;5097894;28;20763;-82
2024/03/27 07:32:04;;;;;;;6.63;5.93;;;9.80;99.90;;;;;;5098765;28;20438;-83
2024/03/27 07:34:29;;;;;;;6.05;5.43;;;9.90;99.90;;;;;;5096367;28;20382;-83
2024/03/27 07:36:55;;;;;;;5.13;4.70;;;9.70;99.90;;;;;;5094624;28;20437;-83
2024/03/27 07:39:21;;;;;;;5.47;4.90;;;9.50;99.90;;;;;;5083749;28;20393;-82
2024/03/27 07:41:46;;;;;;;6.00;4.50;;;9.60;99.90;;;;;;5088563;28;20388;-83
2024/03/27 07:44:12;;;;;;;5.00;4.50;;;9.70;99.90;;;;;;5078485;28;20407;-83
2024/03/27 07:46:37;;;;;;;5.30;4.30;;;9.60;99.90;;;;;;5076364;28;20386;-85
2024/03/27 07:49:03;;;;;;;3.00;2.70;;;9.50;99.90;;;;;;5083637;28;20705;-83
2024/03/27 07:51:28;;;;;;;2.83;2.63;;;9.20;99.90;;;;;;5098780;28;20598;-82
2024/03/27 07:53:54;;;;;;;4.63;3.17;;;8.70;99.90;;;;;;5096595;28;20385;-84
2024/03/27 07:56:19;;;;;;;3.10;2.90;;;8.60;99.90;;;;;;5092241;28;20946;-78
2024/03/27 07:58:45;;;;;;;3.03;2.60;;;8.70;99.90;;;;;;5079185;28;20666;-82
2024/03/27 08:01:10;;;;;;;3.00;2.80;;;8.70;99.90;;;;;;5077324;28;20403;-83
2024/03/27 08:03:36;;;;;;;2.80;2.60;;;8.60;99.90;;;;;;5076758;28;20407;-82
2024/03/27 08:06:02;;;;;;;2.20;2.00;;;8.60;99.90;;;;;;5078340;28;20481;-82
2024/03/27 08:08:28;;;;;;;1.80;1.70;;;8.60;99.90;;;;;;5076442;28;20791;-83
2024/03/27 08:10:57;;;;;;;1.50;1.40;;;8.50;99.90;;;;;;5081108;28;20390;-82
2024/03/27 08:13:23;;;;;;;1.40;1.30;;;8.30;99.90;;;;;;5096643;28;20466;-81
2024/03/27 08:15:49;;;;;;;1.40;1.30;;;8.50;99.90;;;;;;5097542;28;20787;-82
2024/03/27 08:18:14;;;;;;;1.70;1.40;;;8.60;99.90;;;;;;5097134;28;20394;-84
2024/03/27 08:20:40;;;;;;;1.30;1.10;;;8.60;99.90;;;;;;5099333;28;20750;-82
2024/03/27 08:23:06;;;;;;;2.20;1.23;;;8.60;99.90;;;;;;5097573;28;20401;-83
2024/03/27 08:25:33;;;;;;;0.90;0.90;;;8.60;99.90;;;;;;5077551;28;20414;-83
2024/03/27 08:28:01;;;;;;;1.30;0.90;;;8.50;99.90;;;;;;5076354;28;20521;-83
2024/03/27 08:30:27;;;;;;;1.17;0.88;;;8.50;99.90;;;;;;5076436;28;20380;-84
2024/03/27 08:32:52;;;;;;;1.42;1.10;;;8.50;99.90;;;;;;5075327;28;20384;-84
2024/03/27 08:35:18;;;;;;;0.90;0.90;;;8.70;99.90;;;;;;5080685;28;20416;-84
2024/03/27 08:37:44;;;;;;;1.20;1.00;;;8.40;99.90;;;;;;5083947;28;20427;-82
2024/03/27 08:40:11;;;;;;;1.45;0.80;;;8.60;99.90;;;;;;5084484;28;20393;-82
2024/03/27 08:42:37;;;;;;;1.40;0.80;;;8.60;99.90;;;;;;5081885;28;20443;-84
2024/03/27 08:45:04;;;;;;;1.40;0.70;;;8.50;99.90;;;;;;5081962;28;20388;-82
2024/03/27 08:47:30;;;;;;;1.10;0.87;;;8.70;99.90;;;;;;5073219;28;21165;-83
2024/03/27 08:49:56;;;;;;;0.98;0.90;;;8.70;99.90;;;;;;5089440;28;20356;-83
2024/03/27 08:52:21;;;;;;;0.80;0.70;;;8.60;99.90;;;;;;5090264;28;20451;-83
2024/03/27 08:54:47;;;;;;;2.40;0.85;;;8.80;99.90;;;;;;5081454;28;20380;-83
2024/03/27 08:57:12;;;;;;;1.30;0.80;;;8.80;99.90;;;;;;5081970;28;20391;-82
2024/03/27 08:59:38;;;;;;;1.20;0.60;;;8.70;99.90;;;;;;5084574;28;20395;-81
2024/03/27 09:02:03;;;;;;;1.00;0.80;;;8.90;99.90;;;;;;5082027;28;20391;-83
2024/03/27 09:04:29;;;;;;;0.70;0.70;;;8.80;99.90;;;;;;5073396;28;20408;-82
2024/03/27 09:06:54;;;;;;;0.80;0.80;;;8.80;99.90;;;;;;5074879;28;20425;-82
2024/03/27 09:09:20;;;;;;;1.20;0.70;;;8.80;99.90;;;;;;5074398;28;20802;-83
2024/03/27 09:11:45;;;;;;;1.10;0.73;;;8.80;99.90;;;;;;5073981;28;20375;-84
2024/03/27 09:14:11;;;;;;;1.60;0.80;;;8.80;99.90;;;;;;5085300;28;20428;-83
2024/03/27 09:16:36;;;;;;;0.80;0.67;;;8.90;99.90;;;;;;5093465;28;20757;-82
2024/03/27 09:19:02;;;;;;;0.90;0.65;;;8.80;99.90;;;;;;5095218;28;20386;-83
2024/03/27 09:21:28;;;;;;;1.50;0.70;;;8.60;99.90;;;;;;5093782;28;20750;-82
2024/03/27 09:23:53;;;;;;;0.80;0.70;;;8.70;99.90;;;;;;5089934;28;20407;-84
2024/03/27 09:26:19;;;;;;;0.80;0.70;;;8.70;99.90;;;;;;5082242;22;20443;-83
2024/03/27 09:28:45;;;;;;;1.80;0.82;;;8.70;99.90;;;;;;5078407;28;20842;-83
2024/03/27 09:31:10;;;;;;;2.00;0.80;;;8.80;99.90;;;;;;5059813;28;20437;-82
2024/03/27 09:33:36;;;;;;;0.73;0.70;;;8.90;99.90;;;;;;5077681;28;20383;-83
2024/03/27 09:36:02;;;;;;;1.20;0.90;;;8.80;99.90;;;;;;5076837;28;20388;-83
2024/03/27 09:38:27;;;;;;;2.10;0.73;;;8.80;99.90;;;;;;5059544;28;20384;-83
2024/03/27 09:40:57;;;;;;;0.90;0.60;;;8.70;99.90;;;;;;5059654;28;20392;-82
2024/03/27 09:43:24;;;;;;;1.35;0.98;;;8.50;99.90;;;;;;5075869;28;20463;-83
2024/03/27 09:45:51;;;;;;;0.60;0.50;;;8.60;99.90;;;;;;5060829;28;20388;-83
2024/03/27 09:48:17;;;;;;;2.00;0.60;;;8.50;99.90;;;;;;5060794;28;20455;-84
2024/03/27 09:50:44;;;;;;;0.67;0.50;;;8.40;99.90;;;;;;5082207;28;20804;-83
2024/03/27 09:53:11;;;;;;;0.60;0.52;;;8.30;99.90;;;;;;5066666;28;20426;-83
2024/03/27 09:55:38;;;;;;;0.90;0.60;;;8.70;99.90;;;;;;5066388;28;20399;-83
2024/03/27 09:58:15;;;;;;;0.70;0.50;;;8.10;99.90;;;;;;5066295;28;20531;-83
2024/03/27 10:00:42;;;;;;;0.50;0.50;;;8.30;99.90;;;;;;5076461;28;20417;-83
2024/03/27 10:03:08;;;;;;;0.70;0.52;;;8.40;99.90;;;;;;5062100;28;20436;-82
2024/03/27 10:05:34;;;;;;;0.70;0.70;;;8.10;99.90;;;;;;5047601;28;20397;-83
2024/03/27 10:08:02;;;;;;;0.70;0.50;;;8.20;99.90;;;;;;5067472;28;20415;-83
2024/03/27 10:10:29;;;;;;;1.00;0.60;;;8.00;99.90;;;;;;5072762;28;20381;-83
2024/03/27 10:12:55;;;;;;;2.23;0.50;;;8.10;99.90;;;;;;5068171;28;20483;-83
2024/03/27 10:15:21;;;;;;;0.70;0.50;;;7.80;99.90;;;;;;5065367;28;20399;-83
2024/03/27 10:17:47;;;;;;;1.83;0.60;;;7.90;99.90;;;;;;5079336;28;20398;-82
2024/03/27 10:20:13;;;;;;;1.50;0.80;;;8.00;99.90;;;;;;5094890;28;20451;-83
2024/03/27 10:22:39;;;;;;;1.10;0.60;;;8.00;99.90;;;;;;5094237;28;20447;-82
2024/03/27 10:25:07;;;;;;;2.10;0.60;;;7.70;99.90;;;;;;5080883;28;20522;-83
2024/03/27 10:27:33;;;;;;;0.95;0.50;;;7.80;99.90;;;;;;5072662;28;20448;-83
2024/03/27 10:29:59;;;;;;;0.70;0.60;;;7.70;99.90;;;;;;5060350;28;20392;-83
2024/03/27 10:32:25;;;;;;;1.00;0.68;;;7.50;99.90;;;;;;5093028;28;20383;-83
2024/03/27 10:34:51;;;;;;;2.60;0.70;;;7.50;99.90;;;;;;5090481;28;20454;-83
2024/03/27 10:37:19;;;;;;;1.98;0.80;;;7.50;99.90;;;;;;5085825;28;20399;-84
2024/03/27 10:39:49;;;;;;;2.20;0.57;;;7.40;99.90;;;;;;5068434;28;20430;-84
2024/03/27 10:42:21;;;;;;;1.15;0.60;;;7.50;99.90;;;;;;5068440;28;20387;-85
2024/03/27 10:44:48;;;;;;;1.40;0.70;;;7.60;99.90;;;;;;5085470;28;20798;-84
2024/03/27 10:47:16;;;;;;;1.20;0.70;;;7.50;99.90;;;;;;5066388;28;20395;-85
2024/03/27 10:49:42;;;;;;;1.60;0.50;;;7.50;99.90;;;;;;5088775;28;20379;-82
2024/03/27 10:52:13;;;;;;;2.30;0.60;;;7.40;99.90;;;;;;5089355;28;20447;-84
2024/03/27 10:54:41;;;;;;;0.90;0.43;;;7.30;99.90;;;;;;5086864;28;20437;-83
2024/03/27 10:57:07;;;;;;;0.80;0.60;;;7.40;99.90;;;;;;5082830;28;20387;-83
2024/03/27 10:59:34;;;;;;;0.70;0.50;;;7.40;99.90;;;;;;5083467;28;20403;-84
2024/03/27 11:02:07;;;;;;;0.60;0.40;;;7.20;99.90;;;;;;5066394;28;20873;-83
2024/03/27 11:04:35;;;;;;;0.65;0.50;;;7.10;99.90;;;;;;5067557;28;20473;-83
2024/03/27 11:07:00;;;;;;;1.73;0.50;;;7.20;99.90;;;;;;5047686;28;20822;-84
2024/03/27 11:09:26;;;;;;;1.00;0.60;;;7.10;99.90;;;;;;5066865;28;20390;-85
2024/03/27 11:11:51;;;;;;;1.13;0.90;;;7.20;99.90;;;;;;5049798;28;20487;-84
2024/03/27 11:14:18;;;;;;;1.00;0.60;;;7.30;99.90;;;;;;5067126;28;20390;-84
2024/03/27 11:16:50;;;;;;;2.70;0.70;;;7.30;99.90;;;;;;5064516;28;20390;-84
2024/03/27 11:19:16;;;;;;;0.77;0.50;;;7.30;99.90;;;;;;5048713;28;20407;-85
2024/03/27 11:21:42;;;;;;;1.20;0.50;;;7.20;99.90;;;;;;5084417;28;20387;-85
2024/03/27 11:24:11;;;;;;;1.00;0.60;;;7.10;99.90;;;;;;5058968;28;20409;-81
2024/03/27 11:26:37;;;;;;;0.50;0.38;;;6.70;99.90;;;;;;5063321;28;20417;-83
2024/03/27 11:29:04;;;;;;;1.50;0.40;;;7.00;99.90;;;;;;5064975;28;20730;-83
2024/03/27 11:31:50;;;;;;;0.50;0.30;;;6.90;99.90;;;;;;5065186;28;20458;-85
2024/03/27 11:34:16;;;;;;;0.57;0.50;;;6.00;99.90;;;;;;5064531;28;20398;-81
2024/03/27 11:36:42;;;;;;;1.80;0.70;;;6.60;99.90;;;;;;5066136;28;20397;-84
2024/03/27 11:39:09;;;;;;;0.50;0.40;;;6.60;99.90;;;;;;5050134;28;20390;-83
2024/03/27 11:41:35;;;;;;;0.60;0.43;;;6.40;99.90;;;;;;5068449;28;20455;-85
2024/03/27 11:44:00;;;;;;;1.50;0.40;;;6.20;99.90;;;;;;5067132;28;20405;-84
2024/03/27 11:46:26;;;;;;;0.60;0.40;;;6.40;99.90;;;;;;5065848;28;20382;-86
2024/03/27 11:48:52;;;;;;;0.50;0.30;;;6.00;99.90;;;;;;5077480;28;20387;-86
2024/03/27 11:51:18;;;;;;;0.43;0.30;;;6.00;99.90;;;;;;5064975;28;20400;-84
2024/03/27 11:53:44;;;;;;;0.50;0.40;;;5.50;99.90;;;;;;5083906;28;20410;-85
2024/03/27 11:56:09;;;;;;;0.45;0.43;;;6.10;99.90;;;;;;5081996;28;20383;-84
2024/03/27 11:58:37;;;;;;;1.10;1.00;;;6.00;99.90;;;;;;5083692;28;20395;-85
2024/03/27 12:01:03;;;;;;;1.58;0.70;;;6.00;99.90;;;;;;5085366;28;20451;-85
2024/03/27 12:03:29;;;;;;;0.60;0.40;;;6.40;99.90;;;;;;5063448;28;20400;-84
2024/03/27 12:05:54;;;;;;;0.82;0.50;;;6.40;99.90;;;;;;5080294;28;20423;-85
2024/03/27 12:08:20;;;;;;;0.90;0.50;;;6.30;99.90;;;;;;5060291;28;20384;-85
2024/03/27 12:10:46;;;;;;;0.50;0.43;;;6.40;99.90;;;;;;5064417;28;20380;-83
2024/03/27 12:13:14;;;;;;;0.70;0.60;;;6.30;99.90;;;;;;5070406;28;20463;-84
2024/03/27 12:15:42;;;;;;;2.65;0.70;;;6.20;99.90;;;;;;5072696;28;20400;-85
2024/03/27 12:18:11;;;;;;;0.68;0.50;;;6.10;99.90;;;;;;5081835;28;20399;-84
2024/03/27 12:20:36;;;;;;;1.90;0.70;;;6.40;99.90;;;;;;5081518;28;20721;-83
2024/03/27 12:23:03;;;;;;;0.68;0.40;;;6.50;99.90;;;;;;5062838;28;20502;-83
2024/03/27 12:25:31;;;;;;;0.90;0.70;;;6.50;99.90;;;;;;5063460;28;20450;-84
2024/03/27 12:28:00;;;;;;;0.80;0.50;;;6.50;99.90;;;;;;5039253;28;20396;-83
2024/03/27 12:30:26;;;;;;;0.70;0.40;;;6.20;99.90;;;;;;5057387;28;20426;-84
2024/03/27 12:32:52;;;;;;;0.90;0.47;;;6.60;99.90;;;;;;5080466;28;20473;-83
2024/03/27 12:35:17;;;;;;;0.70;0.50;;;6.50;99.90;;;;;;5081625;28;20473;-82
2024/03/27 12:37:43;;;;;;;0.50;0.40;;;6.70;99.90;;;;;;5062935;28;20391;-84
2024/03/27 12:40:09;;;;;;;0.50;0.40;;;7.10;99.90;;;;;;5081129;28;20387;-83
2024/03/27 12:42:34;;;;;;;0.50;0.40;;;6.90;99.90;;;;;;5080585;28;20380;-83
2024/03/27 12:45:01;;;;;;;0.70;0.50;;;6.90;99.90;;;;;;5059934;28;20410;-83
2024/03/27 12:47:26;;;;;;;0.50;0.40;;;6.70;99.90;;;;;;5060691;28;20381;-83
2024/03/27 12:49:52;;;;;;;0.70;0.50;;;6.80;99.90;;;;;;5039382;28;20411;-83